Time;durP1;ratioP1;P1;durP2;ratioP2;P2;SDS_P1;SDS_P2;PMS_P1;PMS_P2;Temp;Humidity;BMP_temperature;BMP_pressure;BME280_temperature;BME280_humidity;BME280_pressure;Samples;Min_cycle;Max_cycle;Signal;HPM_P1;HPM_P2
2022/08/29 00:01:41;;;;;;;918.90;833.33;;;20.30;98.00;;;;;;4983693;28;20208;-80
2022/08/29 00:04:07;;;;;;;905.75;820.45;;;20.30;98.00;;;;;;4981166;28;20649;-80
2022/08/29 00:06:34;;;;;;;902.95;817.72;;;20.30;98.00;;;;;;4984078;28;20628;-82
2022/08/29 00:09:01;;;;;;;897.00;811.80;;;20.30;98.10;;;;;;4988591;28;20232;-80
2022/08/29 00:11:28;;;;;;;918.63;833.22;;;20.30;98.10;;;;;;4987344;28;20206;-80
2022/08/29 00:13:54;;;;;;;917.83;831.97;;;20.30;98.20;;;;;;4986004;28;20255;-81
2022/08/29 00:16:21;;;;;;;904.65;819.38;;;20.20;98.10;;;;;;4986819;28;20201;-80
2022/08/29 00:18:49;;;;;;;898.05;812.90;;;20.20;98.20;;;;;;4988629;28;20200;-80
2022/08/29 00:21:16;;;;;;;899.47;814.30;;;20.20;98.20;;;;;;4981876;28;20209;-81
2022/08/29 00:23:44;;;;;;;908.90;823.53;;;20.20;98.30;;;;;;4989473;28;20197;-80
2022/08/29 00:26:11;;;;;;;909.85;824.60;;;20.20;98.30;;;;;;4986756;28;20209;-81
2022/08/29 00:28:38;;;;;;;887.67;803.05;;;20.20;98.30;;;;;;4984645;28;20219;-81
2022/08/29 00:31:05;;;;;;;916.65;831.30;;;20.10;98.30;;;;;;4986656;28;20547;-82
2022/08/29 00:33:32;;;;;;;906.08;820.78;;;20.10;98.40;;;;;;4986596;28;20225;-81
2022/08/29 00:36:01;;;;;;;897.35;812.30;;;20.10;98.40;;;;;;4988834;28;20229;-81
2022/08/29 00:38:27;;;;;;;896.10;811.20;;;20.10;98.40;;;;;;4987332;28;20197;-81
2022/08/29 00:40:56;;;;;;;893.90;808.95;;;20.10;98.50;;;;;;4987182;28;20201;-81
2022/08/29 00:43:30;;;;;;;884.70;800.00;;;20.10;98.50;;;;;;4988059;28;20292;-81
2022/08/29 00:46:09;;;;;;;885.92;801.60;;;20.10;98.60;;;;;;4986134;28;20231;-81
2022/08/29 00:48:37;;;;;;;869.65;785.55;;;20.00;98.50;;;;;;4988083;28;20204;-82
2022/08/29 00:51:12;;;;;;;880.22;795.97;;;20.00;98.60;;;;;;4986926;28;20202;-79
2022/08/29 00:53:42;;;;;;;877.28;793.03;;;20.00;98.60;;;;;;4986047;28;20614;-79
2022/08/29 00:56:12;;;;;;;869.20;785.38;;;20.00;98.60;;;;;;4991421;28;20576;-81
2022/08/29 00:58:43;;;;;;;881.28;796.75;;;20.00;98.60;;;;;;4986732;28;20202;-80
2022/08/29 01:01:10;;;;;;;888.58;803.92;;;20.00;98.60;;;;;;4988327;28;20201;-80
2022/08/29 01:03:38;;;;;;;895.45;810.58;;;19.90;98.60;;;;;;4988640;28;20224;-81
2022/08/29 01:06:08;;;;;;;883.30;798.83;;;19.90;98.60;;;;;;4986340;28;20204;-80
2022/08/29 01:08:35;;;;;;;910.20;824.90;;;19.90;98.70;;;;;;4985174;28;20200;-79
2022/08/29 01:13:50;;;;;;;890.78;805.97;;;19.90;98.70;;;;;;4987885;28;20628;-81
2022/08/29 01:16:19;;;;;;;872.97;788.58;;;19.90;98.80;;;;;;4987427;28;20197;-83
2022/08/29 01:18:51;;;;;;;883.97;799.63;;;19.90;98.80;;;;;;4987380;28;20280;-81
2022/08/29 01:21:24;;;;;;;876.85;792.50;;;19.90;99.20;;;;;;4985934;28;20289;-81
2022/08/29 01:23:58;;;;;;;893.42;808.47;;;19.90;98.80;;;;;;4986883;28;20194;-81
2022/08/29 01:26:29;;;;;;;875.05;790.67;;;19.80;98.80;;;;;;4981649;28;20205;-81
2022/08/29 01:28:56;;;;;;;876.22;792.00;;;19.80;98.90;;;;;;4983179;28;20213;-81
2022/08/29 01:31:25;;;;;;;874.65;790.38;;;19.80;98.80;;;;;;4988648;28;20665;-81
2022/08/29 01:33:55;;;;;;;881.40;796.72;;;19.80;98.90;;;;;;4991882;28;20208;-81
2022/08/29 01:36:24;;;;;;;882.05;797.30;;;19.80;98.90;;;;;;4987151;28;20201;-80
2022/08/29 01:38:51;;;;;;;866.55;782.63;;;19.80;98.90;;;;;;4991427;28;20666;-81
2022/08/29 01:41:21;;;;;;;883.67;799.10;;;19.80;99.00;;;;;;4986755;28;20189;-81
2022/08/29 01:43:54;;;;;;;878.45;793.97;;;19.80;99.00;;;;;;4990336;28;20287;-80
2022/08/29 01:46:27;;;;;;;883.60;798.72;;;19.70;99.00;;;;;;4986054;28;20333;-82
2022/08/29 01:48:54;;;;;;;869.38;785.20;;;19.70;99.00;;;;;;4985432;28;20592;-80
2022/08/29 01:51:21;;;;;;;871.20;786.70;;;19.70;99.00;;;;;;4983375;28;20679;-81
2022/08/29 01:53:48;;;;;;;846.10;762.45;;;19.70;99.00;;;;;;4989576;28;20573;-82
2022/08/29 01:56:17;;;;;;;884.55;799.25;;;19.70;99.10;;;;;;4991452;28;20593;-80
2022/08/29 01:58:45;;;;;;;890.22;805.13;;;19.70;99.20;;;;;;4986538;28;20761;-82
2022/08/29 02:01:17;;;;;;;881.30;796.50;;;19.60;99.10;;;;;;4989622;28;20193;-80
2022/08/29 02:03:44;;;;;;;889.83;804.33;;;19.60;99.20;;;;;;4985863;28;20255;-81
2022/08/29 02:06:11;;;;;;;881.42;796.58;;;19.60;99.50;;;;;;4988602;28;20210;-82
2022/08/29 02:08:38;;;;;;;894.78;809.58;;;19.60;99.20;;;;;;4988852;28;20811;-82
2022/08/29 02:11:08;;;;;;;898.05;812.60;;;19.60;99.30;;;;;;4988706;28;20721;-83
2022/08/29 02:13:35;;;;;;;893.08;807.80;;;19.60;99.30;;;;;;4991934;28;20197;-82
2022/08/29 02:16:02;;;;;;;889.90;804.58;;;19.60;99.30;;;;;;4990464;28;20209;-82
2022/08/29 02:18:32;;;;;;;844.65;761.03;;;19.50;99.30;;;;;;4990116;28;20702;-82
2022/08/29 02:20:59;;;;;;;898.35;812.97;;;19.50;99.30;;;;;;4999382;28;20193;-82
2022/08/29 02:23:26;;;;;;;853.10;768.83;;;19.50;99.40;;;;;;5002979;28;20209;-82
2022/08/29 02:25:52;;;;;;;876.58;791.63;;;19.50;99.50;;;;;;4998164;28;20205;-82
2022/08/29 02:28:21;;;;;;;881.13;796.17;;;19.50;99.50;;;;;;4999674;28;20656;-82
2022/08/29 02:30:51;;;;;;;877.83;793.13;;;19.50;99.50;;;;;;4994114;28;20303;-82
2022/08/29 02:33:19;;;;;;;856.63;772.67;;;19.50;99.60;;;;;;4991387;28;20201;-81
2022/08/29 02:35:48;;;;;;;863.05;778.47;;;19.40;99.50;;;;;;4994080;28;20201;-82
2022/08/29 02:38:16;;;;;;;887.38;802.22;;;19.40;99.50;;;;;;4995311;28;20231;-82
2022/08/29 02:40:43;;;;;;;865.83;781.38;;;19.40;99.50;;;;;;4996205;28;20272;-82
2022/08/29 02:43:10;;;;;;;875.83;790.88;;;19.40;99.60;;;;;;4990269;28;20213;-82
2022/08/29 02:45:39;;;;;;;869.25;784.25;;;19.40;99.60;;;;;;4985134;28;20201;-82
2022/08/29 02:48:06;;;;;;;874.80;790.00;;;19.40;99.70;;;;;;4995466;28;20200;-81
2022/08/29 02:50:32;;;;;;;855.65;771.55;;;19.40;99.60;;;;;;5000276;28;20212;-82
2022/08/29 02:53:01;;;;;;;869.65;785.05;;;19.30;99.70;;;;;;5001600;28;20196;-82
2022/08/29 02:55:28;;;;;;;858.38;774.17;;;19.30;99.70;;;;;;4992076;28;20201;-82
2022/08/29 02:57:54;;;;;;;864.80;780.42;;;19.30;99.70;;;;;;4989603;28;20216;-82
2022/08/29 03:00:24;;;;;;;855.63;771.33;;;19.30;99.70;;;;;;4991211;28;20208;-82
2022/08/29 03:02:52;;;;;;;860.67;776.50;;;19.30;99.70;;;;;;4989019;28;20237;-82
2022/08/29 03:05:21;;;;;;;863.63;779.35;;;19.30;99.80;;;;;;4988906;28;20194;-82
2022/08/29 03:07:47;;;;;;;851.55;767.85;;;19.30;99.80;;;;;;5001580;28;20205;-81
2022/08/29 03:10:16;;;;;;;861.63;777.22;;;19.20;99.80;;;;;;4999585;28;20853;-81
2022/08/29 03:12:42;;;;;;;850.47;766.38;;;19.20;99.80;;;;;;5001563;28;20207;-81
2022/08/29 03:15:10;;;;;;;850.45;766.47;;;19.20;99.80;;;;;;4996829;28;20201;-82
2022/08/29 03:17:37;;;;;;;851.08;767.00;;;19.20;99.80;;;;;;4994872;28;20195;-82
2022/08/29 03:20:05;;;;;;;857.33;773.03;;;19.20;99.90;;;;;;4993339;28;20639;-82
2022/08/29 03:22:33;;;;;;;838.90;755.42;;;19.20;99.90;;;;;;4984819;28;20201;-82
2022/08/29 03:25:01;;;;;;;853.22;769.20;;;19.20;99.80;;;;;;4998168;28;20201;-83
2022/08/29 03:27:30;;;;;;;858.75;774.50;;;19.10;99.80;;;;;;4991468;28;20669;-81
2022/08/29 03:29:56;;;;;;;858.97;774.70;;;19.10;99.90;;;;;;4987631;28;20222;-82
2022/08/29 03:32:24;;;;;;;826.42;743.28;;;19.10;99.90;;;;;;4984351;28;20199;-82
2022/08/29 03:34:51;;;;;;;837.75;753.97;;;19.10;99.90;;;;;;4987344;28;20205;-82
2022/08/29 03:37:18;;;;;;;857.13;773.08;;;19.10;99.90;;;;;;4990158;28;20197;-82
2022/08/29 03:39:44;;;;;;;861.47;777.28;;;19.10;99.90;;;;;;4991480;28;20655;-82
2022/08/29 03:42:11;;;;;;;838.65;755.15;;;19.10;99.90;;;;;;4992511;28;20719;-82
2022/08/29 03:44:41;;;;;;;830.10;746.78;;;19.00;99.90;;;;;;4989396;28;20197;-82
2022/08/29 03:47:08;;;;;;;854.67;770.72;;;19.00;99.90;;;;;;4990809;28;20205;-82
2022/08/29 03:49:35;;;;;;;854.38;770.10;;;19.00;99.90;;;;;;4980738;28;20680;-82
2022/08/29 03:52:02;;;;;;;847.65;763.75;;;19.00;99.90;;;;;;4983302;28;20675;-81
2022/08/29 03:54:29;;;;;;;865.35;791.55;;;19.00;99.90;;;;;;4994394;28;20567;-82
2022/08/29 03:56:56;;;;;;;860.80;787.40;;;19.00;99.90;;;;;;4993278;28;20288;-82
2022/08/29 03:59:23;;;;;;;849.22;765.33;;;19.00;99.90;;;;;;4995646;28;20213;-82
2022/08/29 04:01:51;;;;;;;842.75;758.95;;;18.90;99.90;;;;;;4988437;28;20223;-81
2022/08/29 04:07:00;;;;;;;826.97;743.80;;;18.90;99.90;;;;;;4993174;28;20252;-82
2022/08/29 04:09:27;;;;;;;847.75;764.00;;;18.90;99.90;;;;;;4991675;28;20261;-82
2022/08/29 04:11:54;;;;;;;839.53;755.88;;;18.90;99.90;;;;;;4998510;28;20209;-82
2022/08/29 04:14:21;;;;;;;815.20;732.33;;;18.90;99.90;;;;;;4998380;28;20199;-82
2022/08/29 04:16:48;;;;;;;846.75;762.95;;;18.90;99.90;;;;;;4998245;28;20197;-82
2022/08/29 04:19:16;;;;;;;843.10;759.28;;;18.80;99.90;;;;;;4992509;28;20202;-82
2022/08/29 04:21:44;;;;;;;851.35;767.55;;;18.80;99.90;;;;;;4993543;28;20656;-81
2022/08/29 04:24:11;;;;;;;836.25;752.58;;;18.80;99.90;;;;;;5006262;28;20684;-82
2022/08/29 04:26:39;;;;;;;824.33;740.78;;;18.80;99.90;;;;;;4996048;28;20201;-82
2022/08/29 04:29:06;;;;;;;837.88;754.28;;;18.80;99.90;;;;;;4995282;28;20205;-82
2022/08/29 04:31:33;;;;;;;840.58;756.88;;;18.80;99.90;;;;;;4987304;28;20304;-81
2022/08/29 04:34:00;;;;;;;840.58;756.97;;;18.80;99.90;;;;;;4993951;28;20201;-82
2022/08/29 04:36:29;;;;;;;829.75;746.38;;;18.80;99.90;;;;;;4989907;28;20205;-82
2022/08/29 04:38:56;;;;;;;834.17;750.30;;;18.80;99.90;;;;;;4993673;28;20219;-82
2022/08/29 04:41:23;;;;;;;846.75;762.65;;;18.70;99.90;;;;;;4991030;28;20208;-82
2022/08/29 04:43:50;;;;;;;829.05;745.38;;;18.70;99.90;;;;;;4983136;28;20661;-82
2022/08/29 04:46:18;;;;;;;835.13;751.42;;;18.70;99.90;;;;;;4987346;28;20212;-82
2022/08/29 04:48:44;;;;;;;839.17;755.10;;;18.70;99.90;;;;;;4989878;28;20236;-82
2022/08/29 04:51:11;;;;;;;827.20;743.55;;;18.70;99.90;;;;;;4991434;28;20217;-83
2022/08/29 04:53:39;;;;;;;826.97;743.55;;;18.70;99.90;;;;;;4992197;28;20288;-82
2022/08/29 04:56:09;;;;;;;829.88;746.47;;;18.70;99.90;;;;;;4990594;28;20204;-82
2022/08/29 04:58:40;;;;;;;827.53;744.13;;;18.70;99.90;;;;;;4996645;28;20211;-82
2022/08/29 05:01:08;;;;;;;818.08;734.92;;;18.70;99.90;;;;;;4988209;28;20204;-82
2022/08/29 05:03:35;;;;;;;837.38;753.65;;;18.60;99.90;;;;;;4992972;28;20317;-82
2022/08/29 05:06:05;;;;;;;848.88;764.80;;;18.60;99.90;;;;;;4990986;28;20201;-82
2022/08/29 05:08:33;;;;;;;840.45;756.65;;;18.60;99.90;;;;;;4990672;28;20207;-82
2022/08/29 05:11:01;;;;;;;833.38;750.05;;;18.60;99.90;;;;;;4991085;28;20228;-81
2022/08/29 05:13:28;;;;;;;815.00;731.80;;;18.60;99.90;;;;;;4993572;28;20258;-82
2022/08/29 05:15:55;;;;;;;833.08;749.67;;;18.60;99.90;;;;;;4990684;28;20220;-82
2022/08/29 05:18:22;;;;;;;812.95;730.08;;;18.60;99.90;;;;;;4996915;28;20203;-82
2022/08/29 05:20:49;;;;;;;837.85;753.90;;;18.60;99.90;;;;;;4990634;28;20202;-82
2022/08/29 05:23:18;;;;;;;785.90;703.70;;;18.60;99.90;;;;;;4993250;28;20208;-82
2022/08/29 05:25:45;;;;;;;816.40;733.50;;;18.60;99.90;;;;;;4990362;28;20208;-82
2022/08/29 05:28:14;;;;;;;835.17;751.60;;;18.60;99.90;;;;;;4989687;28;20572;-82
2022/08/29 05:30:40;;;;;;;808.65;725.78;;;18.60;99.90;;;;;;4991698;28;20225;-82
2022/08/29 05:33:08;;;;;;;829.33;746.15;;;18.60;99.90;;;;;;4994904;28;20541;-82
2022/08/29 05:35:35;;;;;;;841.53;757.75;;;18.60;99.90;;;;;;4991174;28;20214;-82
2022/08/29 05:38:03;;;;;;;831.05;747.83;;;18.60;99.90;;;;;;4993433;28;20212;-82
2022/08/29 05:40:29;;;;;;;824.92;741.78;;;18.60;99.90;;;;;;4992627;28;20201;-82
2022/08/29 05:42:56;;;;;;;812.28;729.38;;;18.60;99.90;;;;;;4992809;28;20220;-82
2022/08/29 05:45:24;;;;;;;833.75;750.20;;;18.60;99.90;;;;;;4993051;28;20193;-82
2022/08/29 05:47:51;;;;;;;820.95;737.95;;;18.60;99.90;;;;;;4995466;28;20644;-82
2022/08/29 05:50:18;;;;;;;812.80;730.17;;;18.60;99.90;;;;;;4992670;28;20252;-82
2022/08/29 05:52:45;;;;;;;823.60;740.45;;;18.70;99.90;;;;;;4993723;28;20686;-81
2022/08/29 05:55:12;;;;;;;845.72;762.17;;;18.70;99.90;;;;;;4994543;28;20215;-82
2022/08/29 05:57:39;;;;;;;840.70;756.85;;;18.70;99.90;;;;;;4996401;28;20207;-83
2022/08/29 06:00:08;;;;;;;819.97;737.00;;;18.70;99.90;;;;;;4992258;28;20212;-82
2022/08/29 06:02:36;;;;;;;838.25;754.75;;;18.80;99.90;;;;;;4999036;28;20232;-83
2022/08/29 06:05:03;;;;;;;829.83;746.25;;;18.80;99.90;;;;;;4991210;28;20217;-83
2022/08/29 06:07:31;;;;;;;813.38;730.45;;;18.80;99.90;;;;;;4994660;28;20579;-83
2022/08/29 06:09:58;;;;;;;831.97;748.70;;;19.00;99.90;;;;;;4989294;28;20208;-84
2022/08/29 06:12:26;;;;;;;841.15;757.78;;;19.10;99.90;;;;;;4988952;28;20652;-84
2022/08/29 06:14:53;;;;;;;854.67;770.83;;;19.20;99.60;;;;;;4986702;28;20576;-83
2022/08/29 06:17:20;;;;;;;848.58;764.63;;;19.30;99.40;;;;;;5001376;28;20197;-83
2022/08/29 06:19:50;;;;;;;854.72;770.85;;;19.40;99.20;;;;;;4991089;28;20213;-83
2022/08/29 06:22:18;;;;;;;862.35;778.25;;;19.50;99.00;;;;;;4986252;28;20226;-83
2022/08/29 06:24:45;;;;;;;878.92;793.72;;;19.60;98.80;;;;;;4988397;28;20197;-84
2022/08/29 06:27:13;;;;;;;868.97;784.60;;;19.70;98.50;;;;;;4990546;28;20193;-83
2022/08/29 06:29:40;;;;;;;884.92;800.22;;;19.80;98.10;;;;;;4997770;28;20652;-84
2022/08/29 06:32:07;;;;;;;875.28;791.08;;;20.00;97.90;;;;;;4987213;28;20224;-84
2022/08/29 06:34:33;;;;;;;892.13;807.22;;;20.00;97.70;;;;;;4991351;28;20597;-83
2022/08/29 06:37:02;;;;;;;894.40;809.35;;;20.00;97.60;;;;;;4993002;28;20211;-84
2022/08/29 06:39:28;;;;;;;882.63;797.90;;;20.00;97.50;;;;;;4995557;28;20595;-84
2022/08/29 06:41:55;;;;;;;891.72;806.85;;;20.10;97.50;;;;;;4990927;28;20205;-83
2022/08/29 06:44:22;;;;;;;887.50;802.70;;;20.20;97.30;;;;;;4987857;28;20193;-83
2022/08/29 06:46:50;;;;;;;897.47;812.40;;;20.30;97.10;;;;;;4992547;28;20839;-83
2022/08/29 06:49:18;;;;;;;915.67;830.42;;;20.30;96.90;;;;;;4992196;28;20611;-84
2022/08/29 06:51:49;;;;;;;917.20;831.53;;;20.40;96.70;;;;;;4987495;28;20716;-84
2022/08/29 06:54:19;;;;;;;916.45;830.90;;;20.50;96.50;;;;;;4994179;28;20234;-84
2022/08/29 06:56:46;;;;;;;921.55;835.83;;;20.70;96.30;;;;;;4991532;28;20650;-85
2022/08/29 06:59:13;;;;;;;919.92;834.15;;;20.80;96.10;;;;;;4990466;28;20231;-84
2022/08/29 07:01:41;;;;;;;945.97;859.38;;;20.90;95.80;;;;;;5000587;28;20205;-85
2022/08/29 07:04:08;;;;;;;925.47;839.40;;;21.00;95.60;;;;;;4988255;28;20603;-84
2022/08/29 07:06:36;;;;;;;920.92;835.25;;;21.00;95.40;;;;;;4979990;28;20212;-82
2022/08/29 07:09:05;;;;;;;935.47;849.38;;;21.10;95.30;;;;;;4998226;28;20205;-85
2022/08/29 07:11:34;;;;;;;923.85;838.20;;;21.10;95.30;;;;;;4986782;28;20565;-84
2022/08/29 07:14:03;;;;;;;926.42;840.70;;;21.00;95.30;;;;;;4988501;28;20208;-84
2022/08/29 07:16:31;;;;;;;932.08;846.05;;;21.00;95.30;;;;;;4981485;28;20197;-85
2022/08/29 07:18:58;;;;;;;933.38;847.45;;;21.00;95.40;;;;;;4987938;28;20205;-85
2022/08/29 07:21:26;;;;;;;913.13;827.85;;;20.90;95.50;;;;;;4986082;28;20197;-85
2022/08/29 07:23:55;;;;;;;931.25;845.35;;;20.90;95.50;;;;;;4991070;28;20206;-85
2022/08/29 07:26:25;;;;;;;940.83;854.60;;;20.90;95.60;;;;;;4998257;28;20628;-85
2022/08/29 07:28:55;;;;;;;937.63;851.67;;;20.90;95.70;;;;;;4997736;28;20216;-85
2022/08/29 07:31:21;;;;;;;941.92;855.55;;;20.90;95.70;;;;;;4999227;28;20210;-85
2022/08/29 07:33:48;;;;;;;946.22;859.97;;;20.90;95.70;;;;;;4997265;28;20285;-84
2022/08/29 07:36:15;;;;;;;934.97;849.10;;;21.00;95.60;;;;;;4995023;28;20201;-84
2022/08/29 07:38:42;;;;;;;944.05;857.75;;;21.00;95.50;;;;;;4996526;28;20661;-84
2022/08/29 07:41:13;;;;;;;931.30;845.17;;;21.10;95.50;;;;;;4997215;28;20204;-83
2022/08/29 07:43:40;;;;;;;919.67;834.10;;;21.10;95.40;;;;;;4992237;28;20202;-83
2022/08/29 07:46:09;;;;;;;936.55;850.53;;;21.20;95.20;;;;;;4993248;28;21973;-84
2022/08/29 07:48:36;;;;;;;961.53;874.42;;;21.30;95.10;;;;;;4991803;28;20219;-86
2022/08/29 07:51:07;;;;;;;934.70;848.78;;;21.40;95.00;;;;;;4987321;28;20224;-86
2022/08/29 07:53:34;;;;;;;950.35;863.70;;;21.50;94.70;;;;;;4989807;28;20181;-85
2022/08/29 07:56:05;;;;;;;967.15;879.67;;;21.70;94.40;;;;;;4996297;28;20209;-84
2022/08/29 07:58:32;;;;;;;958.80;872.17;;;21.80;94.00;;;;;;4991658;28;20196;-86
2022/08/29 08:00:59;;;;;;;978.17;890.47;;;21.90;93.80;;;;;;5002555;28;20216;-85
2022/08/29 08:03:27;;;;;;;962.40;875.45;;;21.90;93.70;;;;;;4992782;28;20291;-85
2022/08/29 08:05:54;;;;;;;983.28;895.97;;;21.80;93.70;;;;;;4992538;28;20201;-85
2022/08/29 08:08:20;;;;;;;967.97;880.80;;;21.70;93.80;;;;;;4987357;28;20565;-87
2022/08/29 08:10:47;;;;;;;967.13;880.13;;;21.60;93.90;;;;;;4993147;28;20200;-84
2022/08/29 08:13:14;;;;;;;971.97;884.65;;;21.60;94.10;;;;;;4997791;28;20197;-83
2022/08/29 08:15:41;;;;;;;968.13;881.13;;;21.50;94.20;;;;;;5003112;28;20201;-82
2022/08/29 08:18:08;;;;;;;967.00;880.13;;;21.40;94.40;;;;;;5002019;28;20197;-82
2022/08/29 08:20:36;;;;;;;967.33;880.45;;;21.40;94.50;;;;;;4988952;28;20197;-82
2022/08/29 08:23:04;;;;;;;948.80;862.63;;;21.40;94.50;;;;;;4998471;28;20194;-82
2022/08/29 08:25:30;;;;;;;949.75;863.65;;;21.50;94.40;;;;;;5002017;28;20201;-83
2022/08/29 08:27:58;;;;;;;968.30;881.40;;;21.60;94.30;;;;;;4997395;28;20209;-82
2022/08/29 08:30:26;;;;;;;968.45;881.60;;;21.70;94.10;;;;;;4996001;28;20193;-82
2022/08/29 08:32:53;;;;;;;968.03;880.83;;;21.70;94.10;;;;;;5000900;28;20718;-83
2022/08/29 08:35:20;;;;;;;974.45;887.45;;;21.70;94.00;;;;;;4999311;28;20254;-83
2022/08/29 08:37:48;;;;;;;964.10;877.20;;;21.70;93.90;;;;;;5006555;28;20201;-84
2022/08/29 08:40:25;;;;;;;976.90;889.97;;;21.80;93.90;;;;;;4992648;28;20205;-83
2022/08/29 08:42:57;;;;;;;962.90;875.80;;;21.80;93.80;;;;;;5001930;28;20195;-82
2022/08/29 08:45:30;;;;;;;972.08;885.30;;;21.90;93.90;;;;;;5002654;28;20266;-82
2022/08/29 08:48:06;;;;;;;986.30;898.60;;;21.90;93.70;;;;;;5003629;28;20204;-83
2022/08/29 08:50:40;;;;;;;978.90;891.83;;;21.90;93.50;;;;;;4987332;28;20666;-82
2022/08/29 08:53:12;;;;;;;978.40;891.10;;;22.00;93.30;;;;;;4990603;28;20222;-82
2022/08/29 08:55:42;;;;;;;981.75;894.22;;;22.10;93.30;;;;;;4995949;28;20197;-83
2022/08/29 08:58:17;;;;;;;975.78;888.90;;;22.20;93.20;;;;;;4993193;28;20263;-82
2022/08/29 09:00:52;;;;;;;992.80;905.25;;;22.20;93.00;;;;;;5006451;28;20203;-83
2022/08/29 09:03:46;;;;;;;981.80;894.65;;;22.20;93.00;;;;;;4998950;28;20228;-84
2022/08/29 09:06:21;;;;;;;976.72;889.97;;;22.10;93.00;;;;;;4992872;28;20189;-84
2022/08/29 09:08:56;;;;;;;974.40;887.17;;;22.10;93.10;;;;;;4996999;28;20200;-82
2022/08/29 09:11:32;;;;;;;982.58;895.38;;;22.10;93.10;;;;;;4990715;28;20279;-82
2022/08/29 09:14:07;;;;;;;982.70;895.67;;;22.10;93.20;;;;;;4993572;28;20919;-82
2022/08/29 09:16:39;;;;;;;980.95;893.83;;;22.10;93.20;;;;;;4999953;28;20192;-83
2022/08/29 09:19:09;;;;;;;985.25;897.95;;;22.10;93.00;;;;;;4996427;28;20209;-83
2022/08/29 09:21:43;;;;;;;960.15;874.00;;;22.10;93.10;;;;;;5004977;28;20201;-84
2022/08/29 09:24:17;;;;;;;981.10;894.13;;;22.10;93.10;;;;;;4997649;28;20189;-83
2022/08/29 09:26:43;;;;;;;977.78;890.88;;;22.10;93.20;;;;;;4992601;28;20204;-83
2022/08/29 09:29:12;;;;;;;977.25;890.20;;;22.10;93.30;;;;;;4995530;28;20201;-83
2022/08/29 09:31:39;;;;;;;989.28;901.90;;;22.10;93.40;;;;;;4993999;28;20726;-83
2022/08/29 09:34:08;;;;;;;986.05;898.80;;;22.10;93.40;;;;;;4990988;28;20216;-82
2022/08/29 09:36:39;;;;;;;981.42;894.38;;;22.10;93.40;;;;;;4988351;28;20224;-83
2022/08/29 09:39:17;;;;;;;991.58;904.25;;;22.20;93.30;;;;;;4996920;28;20315;-82
2022/08/29 09:41:46;;;;;;;984.50;897.38;;;22.20;93.10;;;;;;4995920;28;20200;-83
2022/08/29 09:44:19;;;;;;;987.88;900.47;;;22.30;93.10;;;;;;4996630;28;20204;-83
2022/08/29 09:46:46;;;;;;;993.90;906.17;;;22.30;93.00;;;;;;4992154;28;20241;-83
2022/08/29 09:49:17;;;;;;;1003.65;915.67;;;22.40;92.90;;;;;;4990321;28;20202;-82
2022/08/29 09:51:46;;;;;;;1004.28;916.28;;;22.40;92.80;;;;;;4993241;28;20697;-82
2022/08/29 09:54:18;;;;;;;998.60;910.92;;;22.40;92.60;;;;;;4988412;28;20255;-83
2022/08/29 09:56:53;;;;;;;998.15;910.33;;;22.50;92.50;;;;;;4997134;28;20203;-82
2022/08/29 09:59:27;;;;;;;989.25;901.80;;;22.50;92.60;;;;;;4986855;28;20193;-83
2022/08/29 10:02:20;;;;;;;993.05;905.58;;;22.50;92.70;;;;;;4993609;28;20189;-83
2022/08/29 10:04:50;;;;;;;986.17;898.95;;;22.50;92.60;;;;;;4988032;28;20200;-83
2022/08/29 10:07:19;;;;;;;991.03;903.53;;;22.40;92.50;;;;;;4986376;28;20216;-83
2022/08/29 10:10:00;;;;;;;1003.72;915.88;;;22.40;92.50;;;;;;4994297;28;20193;-83
2022/08/29 10:12:42;;;;;;;978.67;891.88;;;22.30;92.70;;;;;;4992245;28;20205;-82
2022/08/29 10:15:15;;;;;;;976.45;889.63;;;22.30;92.80;;;;;;4997255;28;20202;-84
2022/08/29 10:20:42;;;;;;;973.90;887.38;;;22.30;93.00;;;;;;4987150;28;20671;-83
2022/08/29 10:23:19;;;;;;;970.10;883.42;;;22.20;93.00;;;;;;4991023;28;20312;-82
2022/08/29 10:25:47;;;;;;;966.95;880.72;;;22.20;93.00;;;;;;4991629;28;20723;-82
2022/08/29 10:28:23;;;;;;;967.55;880.92;;;22.20;93.10;;;;;;4989742;28;20200;-82
2022/08/29 10:30:56;;;;;;;976.05;889.55;;;22.20;92.90;;;;;;4988444;28;20196;-82
2022/08/29 10:33:40;;;;;;;975.20;888.60;;;22.20;93.10;;;;;;4994841;28;20313;-82
2022/08/29 10:36:15;;;;;;;970.60;883.58;;;22.20;93.20;;;;;;4984314;28;20205;-83
2022/08/29 10:38:47;;;;;;;965.03;878.35;;;22.10;93.30;;;;;;4994542;28;20235;-82
2022/08/29 10:41:26;;;;;;;972.78;886.05;;;22.10;93.30;;;;;;4990127;28;20201;-82
2022/08/29 10:44:04;;;;;;;972.03;885.33;;;22.10;93.30;;;;;;4989141;28;20208;-81
2022/08/29 10:46:46;;;;;;;987.42;900.03;;;22.10;93.40;;;;;;4988180;28;20197;-82
2022/08/29 10:49:28;;;;;;;971.83;885.33;;;22.10;93.10;;;;;;4988179;28;20192;-82
2022/08/29 10:52:02;;;;;;;964.65;878.22;;;22.10;93.80;;;;;;4987571;28;20252;-83
2022/08/29 10:54:37;;;;;;;958.72;872.58;;;22.10;93.40;;;;;;4986628;28;20204;-82
2022/08/29 10:57:08;;;;;;;972.50;885.67;;;22.20;93.20;;;;;;4988843;28;20560;-83
2022/08/29 10:59:49;;;;;;;982.28;895.25;;;22.20;93.10;;;;;;4989568;28;20192;-85
2022/08/29 11:02:27;;;;;;;987.05;899.85;;;22.20;93.20;;;;;;4987993;28;20680;-82
2022/08/29 11:04:56;;;;;;;972.38;885.47;;;22.30;93.30;;;;;;4990082;28;20201;-82
2022/08/29 11:07:30;;;;;;;978.97;892.25;;;22.30;93.20;;;;;;4984881;28;20194;-82
2022/08/29 11:10:00;;;;;;;971.78;885.08;;;22.30;93.00;;;;;;4989772;28;20212;-82
2022/08/29 11:12:40;;;;;;;987.17;899.90;;;22.30;92.90;;;;;;4987015;28;20309;-84
2022/08/29 11:15:17;;;;;;;971.60;884.95;;;22.30;93.10;;;;;;4987296;28;20200;-84
2022/08/29 11:17:51;;;;;;;984.90;898.00;;;22.30;93.20;;;;;;4985607;28;20532;-84
2022/08/29 11:20:23;;;;;;;981.83;894.70;;;22.30;93.10;;;;;;4991542;28;20205;-82
2022/08/29 11:22:56;;;;;;;967.53;880.95;;;22.30;93.20;;;;;;4995752;28;20201;-83
2022/08/29 11:25:26;;;;;;;977.63;890.63;;;22.30;93.10;;;;;;4989875;28;20683;-85
2022/08/29 11:28:03;;;;;;;984.13;897.30;;;22.30;93.30;;;;;;4991440;28;20201;-85
2022/08/29 11:30:36;;;;;;;969.95;883.53;;;22.30;93.30;;;;;;4986947;28;20255;-83
2022/08/29 11:33:08;;;;;;;970.25;883.47;;;22.30;93.30;;;;;;4987637;28;20764;-83
2022/08/29 11:35:45;;;;;;;980.25;893.45;;;22.30;93.60;;;;;;4983691;28;20202;-82
2022/08/29 11:38:49;;;;;;;974.35;887.70;;;22.40;93.20;;;;;;4984305;28;20189;-85
2022/08/29 11:41:25;;;;;;;977.58;890.75;;;22.40;93.10;;;;;;4978883;28;20211;-85
2022/08/29 11:43:57;;;;;;;967.95;881.53;;;22.40;93.20;;;;;;4987529;28;20567;-84
2022/08/29 11:46:38;;;;;;;988.97;901.70;;;22.40;93.30;;;;;;4988647;28;20203;-85
2022/08/29 11:49:37;;;;;;;995.80;908.50;;;22.40;93.30;;;;;;4989418;28;20197;-84
2022/08/29 11:52:24;;;;;;;972.97;886.15;;;22.40;93.70;;;;;;4927758;29;20224;-83
2022/08/29 11:55:09;;;;;;;977.78;890.97;;;22.40;93.30;;;;;;4975344;28;20205;-84
2022/08/29 11:57:46;;;;;;;974.25;887.55;;;22.40;93.30;;;;;;4979760;28;20643;-86
2022/08/29 12:00:46;;;;;;;990.78;903.42;;;22.30;93.30;;;;;;4983147;28;20200;-84
2022/08/29 12:03:55;;;;;;;964.33;877.85;;;22.40;93.30;;;;;;4942799;28;20232;-83
2022/08/29 12:06:41;;;;;;;962.88;876.42;;;22.30;93.10;;;;;;4986365;28;20193;-83
2022/08/29 12:09:41;;;;;;;990.15;903.03;;;22.30;93.30;;;;;;4985448;28;20223;-82
2022/08/29 12:12:34;;;;;;;964.70;878.35;;;22.30;93.40;;;;;;4975450;28;20197;-82
2022/08/29 12:15:01;;;;;;;978.30;891.42;;;22.30;93.40;;;;;;4992560;28;20193;-82
2022/08/29 12:17:53;;;;;;;982.13;895.17;;;22.30;93.30;;;;;;5010313;28;20210;-83
2022/08/29 12:20:38;;;;;;;984.70;897.78;;;22.30;93.80;;;;;;4972606;28;20590;-83
2022/08/29 12:23:06;;;;;;;972.47;885.83;;;22.30;93.60;;;;;;4987271;28;20241;-85
2022/08/29 12:25:46;;;;;;;989.95;902.92;;;22.30;93.60;;;;;;4992051;28;20279;-85
2022/08/29 12:28:36;;;;;;;977.17;890.63;;;22.30;93.60;;;;;;4986119;28;20296;-82
2022/08/29 12:31:28;;;;;;;965.40;878.85;;;22.30;93.60;;;;;;4982232;28;20229;-82
2022/08/29 12:34:24;;;;;;;982.80;895.80;;;22.30;93.40;;;;;;4982726;28;20575;-83